Time;durP1;ratioP1;P1;durP2;ratioP2;P2;SDS_P1;SDS_P2;PMS_P1;PMS_P2;Temp;Humidity;BMP_temperature;BMP_pressure;BME280_temperature;BME280_humidity;BME280_pressure;Samples;Min_cycle;Max_cycle;Signal;HPM_P1;HPM_P2
2023/11/05 00:02:07;;;;;;;0.30;0.30;;;;;;;10.66;47.01;92855.56;4969793;28;20022;-73
2023/11/05 00:04:33;;;;;;;0.50;0.50;;;;;;;10.40;49.29;92830.50;4966613;28;20043;-74
2023/11/05 00:06:58;;;;;;;1.10;0.77;;;;;;;10.40;51.16;92854.41;4965585;28;20408;-73
2023/11/05 00:09:24;;;;;;;1.95;0.70;;;;;;;10.08;52.63;92840.88;4966322;28;20043;-73
2023/11/05 00:11:49;;;;;;;1.80;0.88;;;;;;;10.27;52.52;92875.63;4963137;28;20035;-73
2023/11/05 00:14:15;;;;;;;2.92;0.98;;;;;;;10.30;53.24;92864.34;4969958;28;20034;-74
2023/11/05 00:16:40;;;;;;;3.17;0.80;;;;;;;10.34;53.08;92843.19;4968841;28;20229;-73
2023/11/05 00:19:06;;;;;;;3.05;0.88;;;;;;;10.30;53.98;92856.38;4965820;28;20507;-73
2023/11/05 00:21:31;;;;;;;8.27;1.20;;;;;;;10.53;53.77;92866.56;4963289;28;20431;-74
2023/11/05 00:23:56;;;;;;;2.67;0.90;;;;;;;10.30;54.51;92867.00;4964860;28;20519;-73
2023/11/05 00:26:22;;;;;;;2.15;1.10;;;;;;;10.43;53.83;92851.06;4964964;28;20063;-73
2023/11/05 00:28:47;;;;;;;1.85;1.30;;;;;;;10.59;53.52;92862.56;4963367;28;20038;-73
2023/11/05 00:31:13;;;;;;;1.60;0.85;;;;;;;10.36;54.45;92846.34;4965175;28;20030;-73
2023/11/05 00:33:39;;;;;;;1.40;0.90;;;;;;;10.10;55.01;92854.63;4964381;28;20018;-74
2023/11/05 00:36:05;;;;;;;1.88;1.33;;;;;;;9.99;55.20;92844.75;4968606;28;20480;-74
2023/11/05 00:38:31;;;;;;;2.35;1.00;;;;;;;10.21;55.20;92850.41;4968627;28;20084;-75
2023/11/05 00:40:57;;;;;;;1.85;0.90;;;;;;;9.68;56.72;92843.41;4966051;28;20452;-73
2023/11/05 00:43:22;;;;;;;4.72;1.15;;;;;;;10.10;55.68;92857.28;4967572;28;20137;-72
2023/11/05 00:45:47;;;;;;;3.28;0.90;;;;;;;9.97;56.15;92855.72;4967591;28;20126;-73
2023/11/05 00:48:13;;;;;;;2.55;1.00;;;;;;;9.76;56.58;92849.72;4967752;28;20093;-74
2023/11/05 00:50:38;;;;;;;1.27;0.85;;;;;;;10.05;55.97;92860.16;4969498;28;20031;-72
2023/11/05 00:53:04;;;;;;;5.43;1.13;;;;;;;10.06;55.93;92851.09;4965284;28;20058;-72
2023/11/05 00:55:29;;;;;;;3.00;1.00;;;;;;;10.24;54.97;92855.06;4966733;28;20038;-75
2023/11/05 00:57:54;;;;;;;2.63;0.90;;;;;;;10.21;55.00;92849.63;4964852;28;20516;-73
2023/11/05 01:00:20;;;;;;;1.83;1.30;;;;;;;10.24;54.82;92870.22;4967166;28;20057;-73
2023/11/05 01:02:46;;;;;;;2.00;1.00;;;;;;;9.60;57.08;92854.13;4968072;28;20629;-75
2023/11/05 01:05:11;;;;;;;2.75;1.38;;;;;;;9.26;58.51;92842.78;4967791;28;20035;-73
2023/11/05 01:07:37;;;;;;;2.33;1.23;;;;;;;9.33;59.35;92853.66;4966211;28;20066;-73
2023/11/05 01:10:03;;;;;;;1.45;1.15;;;;;;;9.66;57.89;92882.03;4969246;28;20046;-74
2023/11/05 01:12:29;;;;;;;8.57;2.95;;;;;;;9.80;57.38;92869.22;4966732;28;20799;-72
2023/11/05 01:14:55;;;;;;;3.40;1.50;;;;;;;9.77;57.67;92846.75;4968204;28;20044;-74
2023/11/05 01:17:21;;;;;;;3.03;0.90;;;;;;;9.92;57.10;92831.28;4966651;28;20153;-72
2023/11/05 01:19:46;;;;;;;1.50;0.98;;;;;;;9.98;56.43;92830.69;4968783;28;20110;-73
2023/11/05 01:22:12;;;;;;;3.50;1.00;;;;;;;10.08;56.46;92843.53;4966864;28;20036;-73
2023/11/05 01:24:37;;;;;;;2.90;1.20;;;;;;;10.14;56.37;92841.44;4968549;28;20627;-73
2023/11/05 01:27:03;;;;;;;3.03;1.20;;;;;;;10.24;56.34;92846.31;4969541;28;20049;-73
2023/11/05 01:29:29;;;;;;;3.67;1.17;;;;;;;9.88;56.95;92847.84;4962474;28;20088;-74
2023/11/05 01:31:55;;;;;;;7.53;1.40;;;;;;;10.10;56.46;92844.00;4949965;28;20615;-74
2023/11/05 01:34:21;;;;;;;1.60;1.00;;;;;;;9.85;57.43;92821.19;4964706;28;20098;-73
2023/11/05 01:36:46;;;;;;;8.00;3.40;;;;;;;9.84;57.54;92828.38;4969203;28;20038;-74
2023/11/05 01:39:12;;;;;;;4.68;2.25;;;;;;;10.16;56.07;92832.03;4965320;28;20034;-72
2023/11/05 01:41:37;;;;;;;2.72;1.58;;;;;;;9.80;56.67;92822.19;4967405;28;20580;-72
2023/11/05 01:44:03;;;;;;;1.77;0.90;;;;;;;9.82;57.45;92832.50;4967120;28;20034;-73
2023/11/05 01:46:28;;;;;;;2.83;1.38;;;;;;;9.69;58.09;92834.34;4964325;28;20031;-74
2023/11/05 01:48:56;;;;;;;2.45;1.13;;;;;;;9.94;57.35;92821.06;4966869;28;20097;-72
2023/11/05 01:51:22;;;;;;;2.10;1.40;;;;;;;10.06;56.83;92845.78;4962645;28;20101;-72
2023/11/05 01:53:51;;;;;;;1.55;1.13;;;;;;;10.22;56.19;92849.28;4964378;28;20053;-72
2023/11/05 01:56:19;;;;;;;1.75;1.05;;;;;;;10.25;55.49;92839.88;4967059;28;20062;-74
2023/11/05 01:58:47;;;;;;;3.10;1.20;;;;;;;10.44;55.35;92848.09;4961711;28;20671;-76
2023/11/05 02:01:14;;;;;;;1.98;1.63;;;;;;;10.43;54.91;92845.75;4946570;28;20085;-74
2023/11/05 02:03:40;;;;;;;4.53;0.98;;;;;;;10.42;55.27;92849.50;4945866;28;20029;-73
2023/11/05 02:06:06;;;;;;;2.03;1.20;;;;;;;9.58;57.41;92859.00;4962307;28;20136;-73
2023/11/05 02:08:32;;;;;;;2.70;1.58;;;;;;;9.86;56.65;92860.72;4967845;28;20157;-74
2023/11/05 02:10:58;;;;;;;5.50;1.00;;;;;;;9.88;56.26;92845.19;4976636;28;20034;-73
2023/11/05 02:13:23;;;;;;;2.47;0.90;;;;;;;9.98;56.16;92854.59;4967850;28;20041;-72
2023/11/05 02:15:48;;;;;;;3.00;0.80;;;;;;;10.16;55.68;92857.84;4965916;28;20456;-73
2023/11/05 02:18:14;;;;;;;4.07;1.80;;;;;;;10.08;55.61;92854.16;4963899;28;20084;-72
2023/11/05 02:20:40;;;;;;;1.83;1.27;;;;;;;10.11;55.86;92861.50;4967320;28;20035;-73
2023/11/05 02:23:08;;;;;;;1.85;1.02;;;;;;;10.19;55.31;92865.91;4960670;28;20078;-73
2023/11/05 02:25:33;;;;;;;2.42;1.70;;;;;;;10.10;55.26;92865.25;4965589;28;20097;-73
2023/11/05 02:28:01;;;;;;;3.72;1.08;;;;;;;10.09;55.12;92865.56;4964521;28;20066;-73
2023/11/05 02:30:27;;;;;;;1.23;1.00;;;;;;;10.09;55.08;92847.75;4966914;28;20034;-73
2023/11/05 02:32:52;;;;;;;3.35;1.05;;;;;;;9.97;54.94;92839.81;4964010;28;20038;-73
2023/11/05 02:35:18;;;;;;;3.00;1.05;;;;;;;9.94;55.77;92859.03;4964818;28;20054;-73
2023/11/05 02:37:43;;;;;;;3.72;0.80;;;;;;;9.92;55.39;92863.91;4964978;28;20034;-73
2023/11/05 02:40:10;;;;;;;2.88;0.98;;;;;;;9.78;55.31;92860.81;4965519;28;20551;-73
2023/11/05 02:42:36;;;;;;;3.28;1.05;;;;;;;9.88;55.36;92847.84;4965849;28;20018;-73
2023/11/05 02:45:03;;;;;;;3.35;1.20;;;;;;;9.68;56.19;92843.41;4971183;28;20031;-73
2023/11/05 02:47:28;;;;;;;3.03;1.10;;;;;;;9.73;56.24;92837.88;4962108;28;20051;-72
2023/11/05 02:49:55;;;;;;;1.75;1.40;;;;;;;9.78;55.64;92831.59;4953801;28;20069;-74
2023/11/05 02:52:21;;;;;;;2.95;1.00;;;;;;;9.26;57.34;92840.13;4966342;28;20045;-73
2023/11/05 02:54:48;;;;;;;2.15;0.80;;;;;;;9.44;57.08;92830.88;4964702;28;20313;-73
2023/11/05 02:57:13;;;;;;;2.35;0.73;;;;;;;9.60;56.88;92831.00;4963565;28;20438;-73
2023/11/05 02:59:39;;;;;;;1.02;0.80;;;;;;;9.77;56.13;92838.78;4957911;28;20031;-72
2023/11/05 03:02:04;;;;;;;5.18;1.17;;;;;;;9.66;55.63;92818.31;4966199;28;20073;-73
2023/11/05 03:04:31;;;;;;;1.00;0.90;;;;;;;9.54;57.02;92836.84;4966213;28;20898;-72
2023/11/05 03:06:56;;;;;;;2.38;0.90;;;;;;;9.41;57.53;92833.41;4971724;28;20439;-73
2023/11/05 03:09:24;;;;;;;1.98;0.68;;;;;;;9.70;56.95;92843.84;4965720;28;20035;-73
2023/11/05 03:11:52;;;;;;;1.95;0.75;;;;;;;9.61;56.50;92853.03;4965028;28;20045;-72
2023/11/05 03:14:17;;;;;;;3.17;1.00;;;;;;;9.49;57.50;92855.69;4965340;28;20703;-72
2023/11/05 03:16:43;;;;;;;2.70;0.80;;;;;;;9.42;57.88;92856.97;4965840;28;20093;-72
2023/11/05 03:19:08;;;;;;;2.00;0.85;;;;;;;9.81;56.72;92857.47;4964472;28;20023;-73
2023/11/05 03:21:35;;;;;;;1.75;0.90;;;;;;;9.93;56.09;92859.38;4966614;28;20146;-73
2023/11/05 03:24:01;;;;;;;1.48;0.93;;;;;;;9.79;56.33;92838.44;4964633;28;20051;-73
2023/11/05 03:26:27;;;;;;;1.88;1.25;;;;;;;9.92;55.78;92881.72;4962249;28;20070;-73
2023/11/05 03:28:53;;;;;;;2.75;0.80;;;;;;;9.89;56.21;92861.91;4961201;28;20233;-74
2023/11/05 03:31:19;;;;;;;1.98;0.90;;;;;;;9.77;55.96;92857.38;4945317;28;20521;-74
2023/11/05 03:33:45;;;;;;;2.97;0.95;;;;;;;9.87;55.41;92861.47;4949610;28;20025;-75
2023/11/05 03:36:10;;;;;;;1.48;0.80;;;;;;;9.92;55.61;92858.59;4971721;28;20039;-72
2023/11/05 03:38:36;;;;;;;1.17;1.08;;;;;;;9.87;55.29;92866.78;4969132;28;20125;-73
2023/11/05 03:41:02;;;;;;;1.10;0.80;;;;;;;9.82;55.31;92878.41;4970593;28;20042;-73
2023/11/05 03:43:28;;;;;;;1.00;0.90;;;;;;;9.86;55.46;92870.53;4975609;28;20097;-73
2023/11/05 03:45:53;;;;;;;1.05;0.80;;;;;;;9.65;56.26;92851.25;4968456;28;20031;-72
2023/11/05 03:48:19;;;;;;;2.05;0.90;;;;;;;9.60;56.14;92857.56;4983536;28;20039;-74
2023/11/05 03:50:45;;;;;;;3.60;0.65;;;;;;;9.64;56.12;92845.19;4967796;28;20038;-74
2023/11/05 03:53:10;;;;;;;1.00;0.90;;;;;;;9.74;55.52;92873.19;4971354;28;20031;-73
2023/11/05 03:55:36;;;;;;;2.63;0.98;;;;;;;9.64;56.32;92855.00;4967376;28;20404;-72
2023/11/05 03:58:01;;;;;;;1.10;0.75;;;;;;;9.70;55.66;92867.75;4968864;28;20026;-73
2023/11/05 04:00:27;;;;;;;2.45;1.05;;;;;;;9.68;56.06;92847.97;4968253;28;20659;-73
2023/11/05 04:02:52;;;;;;;2.53;1.15;;;;;;;9.40;56.04;92851.22;4966589;28;20088;-75
2023/11/05 04:05:18;;;;;;;1.63;0.98;;;;;;;9.47;56.48;92860.53;4975086;28;20043;-73
2023/11/05 04:07:43;;;;;;;1.23;0.70;;;;;;;9.44;56.77;92854.75;4967735;28;20038;-74
2023/11/05 04:10:10;;;;;;;1.15;0.90;;;;;;;9.54;56.04;92848.25;4970063;28;20031;-73
2023/11/05 04:12:36;;;;;;;2.42;1.05;;;;;;;9.46;56.23;92865.06;4969401;28;20054;-74
2023/11/05 04:15:04;;;;;;;2.55;1.10;;;;;;;9.46;56.76;92894.25;4969922;28;20165;-73
2023/11/05 04:17:30;;;;;;;3.25;1.00;;;;;;;9.32;57.27;92891.88;4976551;28;20045;-72
2023/11/05 04:19:56;;;;;;;2.70;0.90;;;;;;;9.23;57.83;92882.47;4964667;28;20275;-72
2023/11/05 04:22:23;;;;;;;3.53;0.98;;;;;;;9.32;57.18;92881.28;4968880;28;20145;-73
2023/11/05 04:24:49;;;;;;;5.38;1.10;;;;;;;9.41;56.67;92891.78;4965286;28;20047;-73
2023/11/05 04:27:14;;;;;;;6.25;1.05;;;;;;;9.26;57.09;92898.50;4965083;28;20050;-72
2023/11/05 04:29:39;;;;;;;1.85;1.10;;;;;;;9.18;57.60;92904.66;4967842;28;20030;-74
2023/11/05 04:32:05;;;;;;;2.42;0.95;;;;;;;9.24;57.72;92898.03;4968268;28;20034;-72
2023/11/05 04:34:32;;;;;;;1.75;1.13;;;;;;;9.09;57.82;92863.38;4966919;28;20065;-74
2023/11/05 04:36:58;;;;;;;1.58;0.90;;;;;;;9.21;57.57;92876.69;4969932;28;20143;-73
2023/11/05 04:39:23;;;;;;;1.73;0.85;;;;;;;9.27;57.43;92870.88;4967488;28;20046;-73
2023/11/05 04:41:49;;;;;;;1.33;0.85;;;;;;;9.18;56.94;92878.13;4969625;28;20129;-73
2023/11/05 04:44:14;;;;;;;1.58;1.30;;;;;;;9.08;56.82;92878.50;4968598;28;20581;-73
2023/11/05 04:46:40;;;;;;;4.18;1.45;;;;;;;9.20;56.99;92891.84;4960368;28;20042;-73
2023/11/05 04:49:06;;;;;;;2.72;1.20;;;;;;;9.13;56.68;92891.59;4947233;28;20686;-73
2023/11/05 04:51:31;;;;;;;2.20;1.40;;;;;;;9.21;57.09;92882.00;4966463;28;20059;-73
2023/11/05 04:53:57;;;;;;;2.42;1.27;;;;;;;9.19;56.70;92885.00;4981959;28;20041;-75
2023/11/05 04:56:22;;;;;;;2.72;1.50;;;;;;;9.32;56.50;92905.16;4967195;28;20041;-73
2023/11/05 04:58:48;;;;;;;4.40;0.90;;;;;;;9.29;57.12;92903.13;4969315;28;20077;-72
2023/11/05 05:01:13;;;;;;;2.90;1.08;;;;;;;9.32;56.88;92899.84;4974752;28;20045;-72
2023/11/05 05:03:39;;;;;;;1.70;1.20;;;;;;;9.29;57.06;92899.75;4968723;28;20088;-73
2023/11/05 05:06:05;;;;;;;2.97;0.80;;;;;;;9.14;56.83;92882.53;4968528;28;20046;-74
2023/11/05 05:08:30;;;;;;;2.70;1.10;;;;;;;9.12;56.75;92874.13;4960104;28;20038;-72
2023/11/05 05:10:55;;;;;;;2.70;0.90;;;;;;;9.32;56.87;92894.53;4968307;28;20485;-74
2023/11/05 05:13:21;;;;;;;2.15;1.10;;;;;;;9.32;56.33;92896.41;4968178;28;20080;-73
2023/11/05 05:15:46;;;;;;;4.00;1.38;;;;;;;9.41;56.52;92918.34;4967273;28;20564;-73
2023/11/05 05:18:12;;;;;;;5.18;1.10;;;;;;;9.44;56.13;92918.44;4967340;28;20493;-75
2023/11/05 05:20:37;;;;;;;4.93;1.20;;;;;;;9.46;56.26;92926.09;4967728;28;20066;-72
2023/11/05 05:23:03;;;;;;;4.85;1.75;;;;;;;9.31;56.28;92879.72;4966731;28;20469;-73
2023/11/05 05:25:29;;;;;;;2.22;1.20;;;;;;;9.45;56.01;92908.63;4963840;28;20638;-72
2023/11/05 05:27:55;;;;;;;3.08;1.50;;;;;;;9.39;56.42;92902.72;4964253;28;20123;-73
2023/11/05 05:30:20;;;;;;;6.93;2.83;;;;;;;9.47;56.30;92911.72;4965601;28;20069;-74
2023/11/05 05:32:46;;;;;;;6.07;3.10;;;;;;;9.40;56.64;92901.63;4968843;28;20031;-71
2023/11/05 05:35:12;;;;;;;3.85;1.73;;;;;;;9.40;56.15;92884.94;4966372;28;20120;-73
2023/11/05 05:37:37;;;;;;;8.70;3.90;;;;;;;9.46;56.72;92910.16;4967173;28;20092;-74
2023/11/05 05:40:04;;;;;;;4.95;1.70;;;;;;;9.53;56.40;92910.44;4967494;28;20365;-73
2023/11/05 05:42:30;;;;;;;5.63;1.98;;;;;;;9.63;56.35;92919.84;4967050;28;20030;-73
2023/11/05 05:44:55;;;;;;;6.82;2.85;;;;;;;9.67;56.21;92916.22;4967474;28;20100;-74
2023/11/05 05:47:21;;;;;;;14.88;6.80;;;;;;;9.73;56.17;92914.13;4966389;28;20102;-72
2023/11/05 05:49:47;;;;;;;14.52;10.00;;;;;;;9.75;56.03;92914.56;4966783;28;20409;-73
2023/11/05 05:52:13;;;;;;;8.15;2.58;;;;;;;9.78;55.83;92924.53;4964695;28;20037;-73
2023/11/05 05:54:38;;;;;;;5.05;1.35;;;;;;;9.79;56.20;92910.13;4966229;28;20022;-73
2023/11/05 05:57:04;;;;;;;3.85;2.75;;;;;;;9.87;55.96;92926.00;4966425;28;20047;-73
2023/11/05 05:59:32;;;;;;;8.07;5.53;;;;;;;9.93;56.18;92926.53;4964801;28;20117;-75
2023/11/05 06:01:57;;;;;;;5.22;2.58;;;;;;;9.90;56.52;92911.28;4967580;28;20038;-74
2023/11/05 06:04:23;;;;;;;2.20;1.30;;;;;;;9.73;55.87;92896.28;4964118;28;20026;-72
2023/11/05 06:06:48;;;;;;;3.50;1.60;;;;;;;9.97;56.37;92905.41;4967026;28;20026;-73
2023/11/05 06:09:16;;;;;;;1.58;0.98;;;;;;;10.05;55.78;92889.38;4966722;28;20039;-73
2023/11/05 06:11:41;;;;;;;3.00;0.90;;;;;;;10.07;55.29;92883.75;4968799;28;20035;-73
2023/11/05 06:14:07;;;;;;;3.05;1.55;;;;;;;9.62;55.97;92889.88;4965302;28;20026;-73
2023/11/05 06:16:35;;;;;;;2.35;1.08;;;;;;;9.96;55.54;92890.59;4966084;28;20030;-75
2023/11/05 06:19:01;;;;;;;3.47;1.20;;;;;;;10.18;55.38;92901.53;4965930;28;20084;-72
2023/11/05 06:21:27;;;;;;;1.55;0.90;;;;;;;10.29;54.70;92907.97;4965545;28;20069;-74
2023/11/05 06:23:53;;;;;;;4.28;1.63;;;;;;;10.21;54.71;92884.97;4965234;28;20096;-73
2023/11/05 06:26:18;;;;;;;3.30;1.20;;;;;;;10.22;54.55;92894.47;4963870;28;20461;-73
2023/11/05 06:28:43;;;;;;;1.85;1.13;;;;;;;10.36;54.29;92888.06;4967062;28;20081;-73
2023/11/05 06:31:09;;;;;;;3.42;1.25;;;;;;;10.42;53.57;92876.88;4965334;28;20564;-73
2023/11/05 06:33:34;;;;;;;1.48;0.73;;;;;;;10.13;53.38;92877.84;4966409;28;20457;-73
2023/11/05 06:36:01;;;;;;;3.33;0.85;;;;;;;10.38;53.81;92917.75;4964074;28;20136;-72
2023/11/05 06:38:27;;;;;;;1.60;0.90;;;;;;;10.50;53.89;92897.25;4965145;28;20035;-74
2023/11/05 06:40:52;;;;;;;1.83;0.90;;;;;;;10.39;53.72;92919.28;4967334;28;20153;-73
2023/11/05 06:43:18;;;;;;;2.05;0.60;;;;;;;10.53;53.54;92919.72;4967659;28;20030;-73
2023/11/05 06:45:44;;;;;;;1.05;0.70;;;;;;;9.85;54.91;92928.19;4973208;28;20026;-72
2023/11/05 06:48:09;;;;;;;3.95;0.90;;;;;;;10.05;54.67;92926.56;4964357;28;20156;-74
2023/11/05 06:50:35;;;;;;;3.30;0.90;;;;;;;10.27;54.40;92923.47;4965411;28;20034;-72
2023/11/05 06:53:00;;;;;;;0.95;0.85;;;;;;;10.45;53.88;92917.97;4960957;28;20041;-75
2023/11/05 06:55:25;;;;;;;2.90;1.10;;;;;;;10.65;52.59;92917.84;4966949;28;20118;-73
2023/11/05 06:57:51;;;;;;;1.38;0.90;;;;;;;10.59;52.47;92916.53;4964327;28;20105;-74
2023/11/05 07:00:17;;;;;;;4.93;1.20;;;;;;;10.66;53.44;92922.03;4968056;28;20038;-73
2023/11/05 07:02:42;;;;;;;2.63;0.98;;;;;;;10.73;53.50;92916.94;4966061;28;20039;-73
2023/11/05 07:05:09;;;;;;;1.90;0.88;;;;;;;10.73;52.68;92918.81;4967085;28;20042;-73
2023/11/05 07:07:35;;;;;;;5.68;0.75;;;;;;;10.49;53.32;92908.22;4967607;28;20045;-73
2023/11/05 07:10:00;;;;;;;3.53;0.90;;;;;;;10.44;53.71;92913.75;4969410;28;20022;-74
2023/11/05 07:12:27;;;;;;;3.13;1.20;;;;;;;10.61;53.43;92889.63;4969164;28;20039;-73
2023/11/05 07:14:52;;;;;;;2.10;0.95;;;;;;;10.92;53.00;92905.72;4968476;28;20088;-75
2023/11/05 07:17:17;;;;;;;3.17;0.90;;;;;;;10.95;51.93;92902.41;4967492;28;20043;-73
2023/11/05 07:19:43;;;;;;;4.30;1.77;;;;;;;11.08;52.08;92898.56;4974054;28;20125;-75
2023/11/05 07:22:11;;;;;;;1.25;0.75;;;;;;;11.16;52.31;92900.31;4957947;28;20053;-74
2023/11/05 07:24:37;;;;;;;2.00;1.10;;;;;;;11.22;51.95;92905.41;4970667;28;20155;-73
2023/11/05 07:27:02;;;;;;;2.50;1.00;;;;;;;11.12;51.60;92894.13;4969956;28;20034;-74
2023/11/05 07:29:28;;;;;;;4.57;1.50;;;;;;;11.18;51.99;92892.78;4970833;28;20516;-71
2023/11/05 07:31:54;;;;;;;1.83;1.10;;;;;;;11.04;52.05;92875.66;4960179;28;20117;-71
2023/11/05 07:34:19;;;;;;;3.65;1.77;;;;;;;10.91;52.78;92885.53;4961537;28;20724;-72
2023/11/05 07:36:45;;;;;;;4.30;1.23;;;;;;;11.18;52.12;92871.50;4964069;28;20037;-73
2023/11/05 07:39:10;;;;;;;3.13;0.98;;;;;;;11.32;51.65;92876.41;4961914;28;20808;-73
2023/11/05 07:41:35;;;;;;;3.47;1.10;;;;;;;11.40;51.46;92867.50;4960748;28;20030;-72
2023/11/05 07:44:01;;;;;;;5.95;0.90;;;;;;;11.38;51.50;92860.97;4965703;28;20069;-73
2023/11/05 07:46:27;;;;;;;3.22;0.98;;;;;;;11.18;51.59;92871.50;4962524;28;20058;-73
2023/11/05 07:48:52;;;;;;;5.00;0.90;;;;;;;11.37;51.28;92835.47;4974497;28;20034;-74
2023/11/05 07:51:23;;;;;;;1.70;1.02;;;;;;;11.74;50.73;92855.47;4958483;28;20044;-72
2023/11/05 07:53:49;;;;;;;1.00;0.88;;;;;;;11.76;50.19;92847.91;4968128;28;20042;-73
2023/11/05 07:56:16;;;;;;;1.27;1.00;;;;;;;11.77;50.33;92872.66;4966231;28;20056;-72
2023/11/05 07:58:41;;;;;;;3.08;1.42;;;;;;;11.56;49.75;92859.56;4959495;28;20049;-72
2023/11/05 08:01:07;;;;;;;2.45;1.00;;;;;;;11.71;49.03;92874.81;4981475;28;20037;-73
2023/11/05 08:03:32;;;;;;;3.75;1.20;;;;;;;11.61;50.16;92824.72;4966715;28;20030;-74
2023/11/05 08:05:57;;;;;;;3.42;1.00;;;;;;;11.84;50.21;92848.84;4969423;28;20524;-74
2023/11/05 08:08:23;;;;;;;4.30;1.35;;;;;;;11.98;50.04;92844.63;4967363;28;20144;-73
2023/11/05 08:10:49;;;;;;;5.43;1.27;;;;;;;11.91;49.98;92819.72;4967316;28;20045;-74
2023/11/05 08:13:14;;;;;;;3.30;1.25;;;;;;;11.96;49.36;92830.91;4964459;28;20038;-75
2023/11/05 08:15:40;;;;;;;1.67;1.00;;;;;;;12.15;49.42;92824.88;4972049;28;20026;-74
2023/11/05 08:18:07;;;;;;;1.67;1.17;;;;;;;12.13;49.50;92803.09;4983175;28;20182;-74
2023/11/05 08:20:32;;;;;;;5.00;1.40;;;;;;;12.07;49.02;92793.06;4947718;28;20043;-72
2023/11/05 08:22:58;;;;;;;5.38;1.40;;;;;;;12.26;49.63;92806.44;4957272;28;20132;-72
2023/11/05 08:25:24;;;;;;;1.23;1.10;;;;;;;12.04;48.56;92758.00;4945666;28;20071;-73
2023/11/05 08:27:50;;;;;;;4.03;1.38;;;;;;;11.89;49.70;92766.78;4968707;28;20031;-74
2023/11/05 08:30:17;;;;;;;2.50;1.10;;;;;;;12.17;49.62;92780.00;4966777;28;20077;-73
2023/11/05 08:32:43;;;;;;;2.15;1.00;;;;;;;11.81;49.25;92775.75;4965149;28;20046;-73
2023/11/05 08:35:09;;;;;;;6.10;1.35;;;;;;;11.94;50.02;92769.19;4965675;28;20080;-75
2023/11/05 08:37:36;;;;;;;3.20;1.77;;;;;;;11.71;49.45;92754.94;4965318;28;20516;-72
2023/11/05 08:40:07;;;;;;;3.60;1.38;;;;;;;11.75;49.68;92777.13;4962442;28;20026;-72
2023/11/05 08:42:34;;;;;;;3.65;1.30;;;;;;;11.95;50.22;92786.72;4966942;28;20043;-72
2023/11/05 08:44:59;;;;;;;1.83;1.20;;;;;;;12.29;49.05;92773.75;4967804;28;20148;-73
2023/11/05 08:47:24;;;;;;;7.45;1.23;;;;;;;12.60;49.18;92788.94;4966180;28;20159;-74
2023/11/05 08:49:50;;;;;;;2.58;1.10;;;;;;;12.80;49.13;92771.81;4957854;28;20066;-74
2023/11/05 08:52:16;;;;;;;6.28;1.60;;;;;;;12.04;49.84;92731.34;4966160;28;20045;-72
2023/11/05 08:54:41;;;;;;;3.78;1.20;;;;;;;12.26;50.35;92745.16;4964881;28;20122;-73
2023/11/05 08:57:06;;;;;;;5.47;1.58;;;;;;;12.34;50.07;92750.28;4968371;28;20038;-75
2023/11/05 08:59:32;;;;;;;3.53;1.40;;;;;;;12.25;50.14;92751.59;4966294;28;20047;-73
2023/11/05 09:01:58;;;;;;;2.15;1.40;;;;;;;11.99;50.54;92749.50;4968640;28;20129;-75
2023/11/05 09:04:24;;;;;;;2.28;1.52;;;;;;;12.08;51.30;92730.66;4966520;28;20030;-73
2023/11/05 09:06:49;;;;;;;3.05;1.42;;;;;;;11.86;51.64;92714.22;4972806;28;20018;-74
2023/11/05 09:09:15;;;;;;;2.63;1.30;;;;;;;11.89;51.23;92740.13;4966423;28;20034;-73
2023/11/05 09:11:43;;;;;;;3.15;1.40;;;;;;;12.06;51.48;92711.59;4967093;28;20058;-74
2023/11/05 09:14:09;;;;;;;4.07;1.40;;;;;;;11.67;51.96;92690.19;4966576;28;20034;-72
2023/11/05 09:16:34;;;;;;;4.32;1.33;;;;;;;11.53;52.09;92711.16;4971365;28;20746;-73
2023/11/05 09:19:00;;;;;;;2.83;1.20;;;;;;;11.57;52.27;92706.69;4967914;28;20026;-73
2023/11/05 09:21:27;;;;;;;3.28;1.73;;;;;;;12.01;52.42;92720.63;4966453;28;20444;-74
2023/11/05 09:23:52;;;;;;;5.97;1.77;;;;;;;11.80;51.29;92718.25;4964441;28;20055;-72
2023/11/05 09:26:19;;;;;;;2.40;1.60;;;;;;;12.16;52.55;92743.03;4964546;28;20058;-74
2023/11/05 09:28:44;;;;;;;4.03;1.40;;;;;;;12.28;51.24;92698.34;4963526;28;20034;-73
2023/11/05 09:31:11;;;;;;;7.78;1.90;;;;;;;11.86;52.27;92687.56;4969577;28;20019;-73
2023/11/05 09:33:37;;;;;;;4.13;1.50;;;;;;;12.06;52.50;92682.28;4967254;28;20057;-73
2023/11/05 09:36:02;;;;;;;5.40;1.85;;;;;;;11.76;52.77;92672.13;4966746;28;20133;-74
2023/11/05 09:38:27;;;;;;;4.70;1.10;;;;;;;11.62;52.45;92687.00;4965414;28;20409;-75
2023/11/05 09:40:53;;;;;;;5.00;1.73;;;;;;;11.40;52.59;92689.13;4970972;28;20041;-74
2023/11/05 09:43:19;;;;;;;3.33;1.45;;;;;;;11.57;52.98;92706.69;4969222;28;20026;-73
2023/11/05 09:45:49;;;;;;;2.58;1.30;;;;;;;11.56;52.60;92692.59;4967761;28;20405;-73
2023/11/05 09:48:14;;;;;;;3.50;1.38;;;;;;;11.50;52.36;92682.53;4965869;28;20050;-73
2023/11/05 09:50:41;;;;;;;3.13;1.80;;;;;;;11.71;52.57;92693.69;4967858;28;20030;-74
2023/11/05 09:53:10;;;;;;;4.72;1.30;;;;;;;11.70;52.61;92662.84;4964912;28;20117;-73
2023/11/05 09:55:38;;;;;;;7.82;2.63;;;;;;;11.75;51.90;92654.59;4967265;28;20503;-73
2023/11/05 09:58:04;;;;;;;5.47;1.77;;;;;;;11.62;52.35;92601.81;4966885;28;20038;-74
2023/11/05 10:00:33;;;;;;;3.22;1.35;;;;;;;11.90;52.69;92651.13;4967460;28;20034;-75
2023/11/05 10:03:01;;;;;;;3.33;1.00;;;;;;;11.86;52.11;92655.59;4966987;28;20073;-74
2023/11/05 10:05:31;;;;;;;1.83;0.98;;;;;;;11.96;53.29;92648.94;4965089;28;20050;-74
2023/11/05 10:07:57;;;;;;;5.78;1.27;;;;;;;12.08;52.72;92613.41;4964273;28;20042;-75
2023/11/05 10:10:23;;;;;;;5.70;1.00;;;;;;;12.29;51.48;92627.16;4970229;28;20516;-77
2023/11/05 10:12:49;;;;;;;5.85;1.00;;;;;;;12.43;50.39;92624.75;4978881;28;20081;-73
2023/11/05 10:15:15;;;;;;;1.77;0.88;;;;;;;12.44;50.91;92613.72;4966016;28;20027;-73
2023/11/05 10:17:41;;;;;;;4.13;0.90;;;;;;;12.42;51.03;92615.97;4964688;28;20053;-76
2023/11/05 10:20:10;;;;;;;2.30;0.82;;;;;;;12.49;50.78;92602.00;4965747;28;20049;-75
2023/11/05 10:22:42;;;;;;;2.33;1.10;;;;;;;12.58;50.47;92573.25;4965759;28;20520;-76
2023/11/05 10:25:08;;;;;;;2.42;1.17;;;;;;;12.71;50.57;92606.63;4961441;28;20620;-74
2023/11/05 10:27:37;;;;;;;1.58;0.90;;;;;;;12.96;50.54;92603.63;4961215;28;20026;-74
2023/11/05 10:30:08;;;;;;;4.10;1.17;;;;;;;12.85;49.63;92558.84;4960303;28;20437;-74
2023/11/05 10:32:37;;;;;;;1.15;1.00;;;;;;;12.80;49.40;92559.16;4958131;28;20073;-74
2023/11/05 10:35:04;;;;;;;3.72;0.85;;;;;;;12.71;48.99;92566.59;4956901;28;20489;-74
2023/11/05 10:37:30;;;;;;;3.85;0.82;;;;;;;12.83;49.39;92573.66;4945513;28;20616;-77
2023/11/05 10:39:55;;;;;;;4.70;0.85;;;;;;;13.04;48.78;92597.25;4958513;28;20430;-75
2023/11/05 10:42:22;;;;;;;3.33;1.13;;;;;;;13.13;48.67;92589.78;4962170;28;20081;-74
2023/11/05 10:44:48;;;;;;;4.72;0.75;;;;;;;12.87;48.04;92587.84;4962476;28;20104;-75
2023/11/05 10:47:15;;;;;;;2.10;1.00;;;;;;;12.84;49.09;92586.66;4963885;28;20031;-75
2023/11/05 10:49:42;;;;;;;4.82;0.90;;;;;;;13.02;48.50;92596.84;4959782;28;20054;-73
2023/11/05 10:52:08;;;;;;;1.98;0.85;;;;;;;12.71;47.92;92555.94;4962424;28;20026;-75
2023/11/05 10:54:34;;;;;;;2.35;0.70;;;;;;;12.81;46.31;92544.66;4961372;28;20078;-72
2023/11/05 10:57:00;;;;;;;3.78;0.52;;;;;;;13.10;46.82;92593.94;4966752;28;20085;-74
2023/11/05 10:59:38;;;;;;;2.25;0.55;;;;;;;13.25;47.24;92560.22;4963414;28;20650;-73
2023/11/05 11:02:06;;;;;;;1.90;0.80;;;;;;;13.59;46.19;92529.81;4970473;28;20567;-75
2023/11/05 11:04:32;;;;;;;5.57;0.65;;;;;;;13.94;46.45;92526.03;4965719;28;20105;-73
2023/11/05 11:06:58;;;;;;;3.85;0.77;;;;;;;13.53;43.39;92507.22;4969915;28;20559;-76
2023/11/05 11:09:29;;;;;;;3.45;0.73;;;;;;;13.53;44.71;92514.44;4970713;28;20034;-74
2023/11/05 11:11:58;;;;;;;2.05;0.95;;;;;;;13.66;46.70;92534.47;4970475;28;20089;-74
2023/11/05 11:14:24;;;;;;;1.67;0.70;;;;;;;13.43;46.30;92547.13;4970328;28;20307;-74
2023/11/05 11:16:50;;;;;;;0.60;0.60;;;;;;;13.13;45.58;92531.06;4968994;28;20148;-72
2023/11/05 11:19:17;;;;;;;2.28;0.68;;;;;;;13.18;46.49;92558.22;4968223;28;20458;-73
2023/11/05 11:21:48;;;;;;;3.10;0.90;;;;;;;13.44;47.99;92543.31;4967024;28;20023;-73
2023/11/05 11:24:30;;;;;;;1.60;0.80;;;;;;;13.48;46.30;92571.63;4984583;28;20189;-72
2023/11/05 11:27:04;;;;;;;1.25;0.80;;;;;;;13.50;46.52;92585.38;4965264;28;20082;-74
2023/11/05 11:29:31;;;;;;;2.10;0.60;;;;;;;13.55;44.18;92561.03;4961388;28;20043;-73
2023/11/05 11:31:57;;;;;;;4.15;0.90;;;;;;;13.73;46.43;92577.34;4974535;28;20112;-74